sensor_id;sensor_type;location;lat;lon;timestamp;temperature;humidity
67974;DHT22;54756;51.140;6.952;2022-09-12T00:01:03;12.10;90.00
67974;DHT22;54756;51.140;6.952;2022-09-12T00:03:03;12.20;90.10
67974;DHT22;54756;51.140;6.952;2022-09-12T00:05:04;12.20;90.10
67974;DHT22;54756;51.140;6.952;2022-09-12T00:07:06;12.20;90.10
67974;DHT22;54756;51.140;6.952;2022-09-12T00:09:09;12.20;90.10
67974;DHT22;54756;51.140;6.952;2022-09-12T00:11:11;12.10;90.00
67974;DHT22;54756;51.140;6.952;2022-09-12T00:13:12;12.10;90.10
67974;DHT22;54756;51.140;6.952;2022-09-12T00:15:13;12.10;90.10
67974;DHT22;54756;51.140;6.952;2022-09-12T00:17:13;12.10;90.10
67974;DHT22;54756;51.140;6.952;2022-09-12T00:19:14;12.00;90.10
67974;DHT22;54756;51.140;6.952;2022-09-12T00:21:16;12.00;90.10
67974;DHT22;54756;51.140;6.952;2022-09-12T00:23:17;12.00;90.10
67974;DHT22;54756;51.140;6.952;2022-09-12T00:25:17;12.00;90.20
67974;DHT22;54756;51.140;6.952;2022-09-12T00:27:18;12.00;90.20
67974;DHT22;54756;51.140;6.952;2022-09-12T00:29:20;12.00;90.20
67974;DHT22;54756;51.140;6.952;2022-09-12T00:31:23;12.00;90.20
67974;DHT22;54756;51.140;6.952;2022-09-12T00:33:24;11.90;90.50
67974;DHT22;54756;51.140;6.952;2022-09-12T00:35:25;11.90;90.20
67974;DHT22;54756;51.140;6.952;2022-09-12T00:37:25;11.90;90.20
67974;DHT22;54756;51.140;6.952;2022-09-12T00:39:26;11.90;90.50
67974;DHT22;54756;51.140;6.952;2022-09-12T00:41:30;11.90;90.20
67974;DHT22;54756;51.140;6.952;2022-09-12T00:43:33;11.90;90.30
67974;DHT22;54756;51.140;6.952;2022-09-12T00:45:34;11.90;90.30
67974;DHT22;54756;51.140;6.952;2022-09-12T00:47:35;11.80;90.20
67974;DHT22;54756;51.140;6.952;2022-09-12T00:50:12;11.80;90.30
67974;DHT22;54756;51.140;6.952;2022-09-12T00:52:15;11.80;90.30
67974;DHT22;54756;51.140;6.952;2022-09-12T00:54:21;11.80;90.30
67974;DHT22;54756;51.140;6.952;2022-09-12T00:56:23;11.80;90.30
67974;DHT22;54756;51.140;6.952;2022-09-12T00:58:29;11.80;90.40
67974;DHT22;54756;51.140;6.952;2022-09-12T01:00:32;11.80;90.40
67974;DHT22;54756;51.140;6.952;2022-09-12T01:02:33;11.70;90.30
67974;DHT22;54756;51.140;6.952;2022-09-12T01:04:35;11.70;90.40
67974;DHT22;54756;51.140;6.952;2022-09-12T01:06:40;11.70;90.40
67974;DHT22;54756;51.140;6.952;2022-09-12T01:08:42;11.70;90.40
67974;DHT22;54756;51.140;6.952;2022-09-12T01:10:43;11.70;90.50
67974;DHT22;54756;51.140;6.952;2022-09-12T01:12:44;11.70;90.60
67974;DHT22;54756;51.140;6.952;2022-09-12T01:14:45;11.70;90.60
67974;DHT22;54756;51.140;6.952;2022-09-12T01:16:47;11.70;90.60
67974;DHT22;54756;51.140;6.952;2022-09-12T01:18:58;11.70;90.50
67974;DHT22;54756;51.140;6.952;2022-09-12T01:21:25;11.70;90.50
67974;DHT22;54756;51.140;6.952;2022-09-12T01:26:11;11.60;90.50
67974;DHT22;54756;51.140;6.952;2022-09-12T01:28:31;11.60;90.50
67974;DHT22;54756;51.140;6.952;2022-09-12T01:33:21;11.60;90.60
67974;DHT22;54756;51.140;6.952;2022-09-12T01:35:39;11.60;90.60
67974;DHT22;54756;51.140;6.952;2022-09-12T01:40:28;11.60;90.60
67974;DHT22;54756;51.140;6.952;2022-09-12T01:42:44;11.60;90.70
67974;DHT22;54756;51.140;6.952;2022-09-12T01:47:44;11.60;90.70
67974;DHT22;54756;51.140;6.952;2022-09-12T01:50:06;11.50;90.60
67974;DHT22;54756;51.140;6.952;2022-09-12T01:54:52;11.50;90.60
67974;DHT22;54756;51.140;6.952;2022-09-12T01:56:58;11.50;90.60
67974;DHT22;54756;51.140;6.952;2022-09-12T01:59:23;11.50;90.60
67974;DHT22;54756;51.140;6.952;2022-09-12T02:01:27;11.50;90.70
67974;DHT22;54756;51.140;6.952;2022-09-12T02:03:43;11.50;90.70
67974;DHT22;54756;51.140;6.952;2022-09-12T02:05:56;11.50;90.70
67974;DHT22;54756;51.140;6.952;2022-09-12T02:08:06;11.50;90.80
67974;DHT22;54756;51.140;6.952;2022-09-12T02:10:15;11.50;90.80
67974;DHT22;54756;51.140;6.952;2022-09-12T02:12:20;11.50;90.80
67974;DHT22;54756;51.140;6.952;2022-09-12T02:14:33;11.50;90.80
67974;DHT22;54756;51.140;6.952;2022-09-12T02:16:37;11.50;91.10
67974;DHT22;54756;51.140;6.952;2022-09-12T02:18:46;11.50;90.90
67974;DHT22;54756;51.140;6.952;2022-09-12T02:20:49;11.40;90.80
67974;DHT22;54756;51.140;6.952;2022-09-12T02:22:51;11.50;90.90
67974;DHT22;54756;51.140;6.952;2022-09-12T02:24:54;11.50;90.90
67974;DHT22;54756;51.140;6.952;2022-09-12T02:27:00;11.40;90.90
67974;DHT22;54756;51.140;6.952;2022-09-12T02:29:03;11.40;90.80
67974;DHT22;54756;51.140;6.952;2022-09-12T02:31:16;11.40;90.90
67974;DHT22;54756;51.140;6.952;2022-09-12T02:33:26;11.40;90.90
67974;DHT22;54756;51.140;6.952;2022-09-12T02:35:41;11.40;90.90
67974;DHT22;54756;51.140;6.952;2022-09-12T02:38:02;11.40;90.90
67974;DHT22;54756;51.140;6.952;2022-09-12T02:40:04;11.30;90.80
67974;DHT22;54756;51.140;6.952;2022-09-12T02:42:06;11.40;90.90
67974;DHT22;54756;51.140;6.952;2022-09-12T02:44:07;11.30;90.90
67974;DHT22;54756;51.140;6.952;2022-09-12T02:46:11;11.30;90.90
67974;DHT22;54756;51.140;6.952;2022-09-12T02:48:18;11.40;91.00
67974;DHT22;54756;51.140;6.952;2022-09-12T02:50:20;11.40;91.00
67974;DHT22;54756;51.140;6.952;2022-09-12T02:52:20;11.30;90.90
67974;DHT22;54756;51.140;6.952;2022-09-12T02:54:22;11.30;90.90
67974;DHT22;54756;51.140;6.952;2022-09-12T02:56:27;11.30;90.90
67974;DHT22;54756;51.140;6.952;2022-09-12T02:58:29;11.30;90.90
67974;DHT22;54756;51.140;6.952;2022-09-12T03:00:35;11.30;91.00
67974;DHT22;54756;51.140;6.952;2022-09-12T03:03:07;11.30;91.00
67974;DHT22;54756;51.140;6.952;2022-09-12T03:07:38;11.20;91.00
67974;DHT22;54756;51.140;6.952;2022-09-12T03:16:52;11.20;91.00
67974;DHT22;54756;51.140;6.952;2022-09-12T03:19:08;11.20;91.00
67974;DHT22;54756;51.140;6.952;2022-09-12T03:21:54;11.20;91.00
67974;DHT22;54756;51.140;6.952;2022-09-12T03:26:06;11.10;91.00
67974;DHT22;54756;51.140;6.952;2022-09-12T03:28:15;11.10;91.00
67974;DHT22;54756;51.140;6.952;2022-09-12T03:30:16;11.10;91.00
67974;DHT22;54756;51.140;6.952;2022-09-12T03:32:17;11.10;91.00
67974;DHT22;54756;51.140;6.952;2022-09-12T03:34:18;11.10;91.30
67974;DHT22;54756;51.140;6.952;2022-09-12T03:36:22;11.00;90.90
67974;DHT22;54756;51.140;6.952;2022-09-12T03:38:23;11.00;90.90
67974;DHT22;54756;51.140;6.952;2022-09-12T03:40:24;11.00;90.90
67974;DHT22;54756;51.140;6.952;2022-09-12T03:42:24;11.00;90.90
67974;DHT22;54756;51.140;6.952;2022-09-12T03:44:25;11.00;91.00
67974;DHT22;54756;51.140;6.952;2022-09-12T03:46:25;11.00;91.00
67974;DHT22;54756;51.140;6.952;2022-09-12T03:48:26;11.00;91.00
67974;DHT22;54756;51.140;6.952;2022-09-12T03:50:26;11.00;91.00
67974;DHT22;54756;51.140;6.952;2022-09-12T03:52:27;11.00;91.00
67974;DHT22;54756;51.140;6.952;2022-09-12T03:54:28;11.00;91.10
67974;DHT22;54756;51.140;6.952;2022-09-12T03:56:28;11.00;91.10
67974;DHT22;54756;51.140;6.952;2022-09-12T03:58:30;11.00;91.10
67974;DHT22;54756;51.140;6.952;2022-09-12T04:00:30;11.00;91.10
67974;DHT22;54756;51.140;6.952;2022-09-12T04:02:31;11.00;91.10
67974;DHT22;54756;51.140;6.952;2022-09-12T04:04:31;11.00;91.10
67974;DHT22;54756;51.140;6.952;2022-09-12T04:06:32;11.00;91.10
67974;DHT22;54756;51.140;6.952;2022-09-12T04:08:36;11.00;91.10
67974;DHT22;54756;51.140;6.952;2022-09-12T04:10:37;11.00;91.10
67974;DHT22;54756;51.140;6.952;2022-09-12T04:12:37;11.00;91.50
67974;DHT22;54756;51.140;6.952;2022-09-12T04:14:39;11.00;91.10
67974;DHT22;54756;51.140;6.952;2022-09-12T04:16:39;11.00;91.10
67974;DHT22;54756;51.140;6.952;2022-09-12T04:18:40;11.00;91.10
67974;DHT22;54756;51.140;6.952;2022-09-12T04:20:40;11.00;91.10
67974;DHT22;54756;51.140;6.952;2022-09-12T04:22:41;11.00;91.20
67974;DHT22;54756;51.140;6.952;2022-09-12T04:24:45;10.90;91.10
67974;DHT22;54756;51.140;6.952;2022-09-12T04:26:46;11.00;91.20
67974;DHT22;54756;51.140;6.952;2022-09-12T04:28:47;10.90;91.10
67974;DHT22;54756;51.140;6.952;2022-09-12T04:30:48;10.90;91.10
67974;DHT22;54756;51.140;6.952;2022-09-12T04:32:49;10.90;91.10
67974;DHT22;54756;51.140;6.952;2022-09-12T04:34:52;10.90;91.20
67974;DHT22;54756;51.140;6.952;2022-09-12T04:36:53;10.90;91.20
67974;DHT22;54756;51.140;6.952;2022-09-12T04:38:54;10.90;91.20
67974;DHT22;54756;51.140;6.952;2022-09-12T04:40:54;10.90;91.20
67974;DHT22;54756;51.140;6.952;2022-09-12T04:42:56;10.90;91.20
67974;DHT22;54756;51.140;6.952;2022-09-12T04:44:56;10.90;91.20
67974;DHT22;54756;51.140;6.952;2022-09-12T04:46:57;10.90;91.20
67974;DHT22;54756;51.140;6.952;2022-09-12T04:48:58;10.90;91.20
67974;DHT22;54756;51.140;6.952;2022-09-12T04:51:13;10.90;91.20
67974;DHT22;54756;51.140;6.952;2022-09-12T04:53:14;10.90;91.20
67974;DHT22;54756;51.140;6.952;2022-09-12T04:55:14;10.90;91.20
67974;DHT22;54756;51.140;6.952;2022-09-12T04:57:15;10.90;91.20
67974;DHT22;54756;51.140;6.952;2022-09-12T04:59:17;11.00;91.30
67974;DHT22;54756;51.140;6.952;2022-09-12T05:01:20;11.00;91.30
67974;DHT22;54756;51.140;6.952;2022-09-12T05:03:21;11.00;91.30
67974;DHT22;54756;51.140;6.952;2022-09-12T05:05:21;11.00;91.30
67974;DHT22;54756;51.140;6.952;2022-09-12T05:07:22;11.00;91.30
67974;DHT22;54756;51.140;6.952;2022-09-12T05:09:23;11.00;91.30
67974;DHT22;54756;51.140;6.952;2022-09-12T05:11:25;11.00;91.30
67974;DHT22;54756;51.140;6.952;2022-09-12T05:13:26;11.00;91.30
67974;DHT22;54756;51.140;6.952;2022-09-12T05:15:27;11.00;91.30
67974;DHT22;54756;51.140;6.952;2022-09-12T05:17:28;11.10;91.40
67974;DHT22;54756;51.140;6.952;2022-09-12T05:19:30;11.10;91.40
67974;DHT22;54756;51.140;6.952;2022-09-12T05:21:31;11.10;91.40
67974;DHT22;54756;51.140;6.952;2022-09-12T05:23:31;11.20;91.40
67974;DHT22;54756;51.140;6.952;2022-09-12T05:25:33;11.20;91.40
67974;DHT22;54756;51.140;6.952;2022-09-12T05:27:33;11.20;91.40
67974;DHT22;54756;51.140;6.952;2022-09-12T05:29:34;11.30;91.50
67974;DHT22;54756;51.140;6.952;2022-09-12T05:31:35;11.30;91.50
67974;DHT22;54756;51.140;6.952;2022-09-12T05:33:38;11.40;91.50
67974;DHT22;54756;51.140;6.952;2022-09-12T05:35:39;11.50;91.60
67974;DHT22;54756;51.140;6.952;2022-09-12T05:37:41;11.50;91.70
67974;DHT22;54756;51.140;6.952;2022-09-12T05:39:42;11.60;91.60
67974;DHT22;54756;51.140;6.952;2022-09-12T05:41:42;11.60;91.60
67974;DHT22;54756;51.140;6.952;2022-09-12T05:43:44;11.70;91.70
67974;DHT22;54756;51.140;6.952;2022-09-12T05:45:45;11.80;91.70
67974;DHT22;54756;51.140;6.952;2022-09-12T05:47:46;11.90;91.70
67974;DHT22;54756;51.140;6.952;2022-09-12T05:49:46;11.90;91.60
67974;DHT22;54756;51.140;6.952;2022-09-12T05:51:48;12.00;91.70
67974;DHT22;54756;51.140;6.952;2022-09-12T05:53:52;12.00;91.60
67974;DHT22;54756;51.140;6.952;2022-09-12T05:56:07;12.10;91.70
67974;DHT22;54756;51.140;6.952;2022-09-12T05:58:07;12.20;91.70
67974;DHT22;54756;51.140;6.952;2022-09-12T06:00:09;12.30;91.80
67974;DHT22;54756;51.140;6.952;2022-09-12T06:02:10;12.40;91.80
67974;DHT22;54756;51.140;6.952;2022-09-12T06:04:11;12.50;91.80
67974;DHT22;54756;51.140;6.952;2022-09-12T06:06:13;12.60;91.80
67974;DHT22;54756;51.140;6.952;2022-09-12T06:08:14;12.70;91.80
67974;DHT22;54756;51.140;6.952;2022-09-12T06:10:14;12.70;92.10
67974;DHT22;54756;51.140;6.952;2022-09-12T06:12:15;12.80;91.80
67974;DHT22;54756;51.140;6.952;2022-09-12T06:14:16;12.90;91.80
67974;DHT22;54756;51.140;6.952;2022-09-12T06:16:19;12.90;91.70
67974;DHT22;54756;51.140;6.952;2022-09-12T06:18:20;13.00;91.70
67974;DHT22;54756;51.140;6.952;2022-09-12T06:20:21;13.10;91.70
67974;DHT22;54756;51.140;6.952;2022-09-12T06:22:21;13.20;91.70
67974;DHT22;54756;51.140;6.952;2022-09-12T06:24:22;13.30;91.70
67974;DHT22;54756;51.140;6.952;2022-09-12T06:26:23;13.40;91.70
67974;DHT22;54756;51.140;6.952;2022-09-12T06:28:25;13.50;91.70
67974;DHT22;54756;51.140;6.952;2022-09-12T06:30:26;13.50;91.60
67974;DHT22;54756;51.140;6.952;2022-09-12T06:32:29;13.60;91.60
67974;DHT22;54756;51.140;6.952;2022-09-12T06:34:30;13.70;91.60
67974;DHT22;54756;51.140;6.952;2022-09-12T06:36:33;13.90;91.60
67974;DHT22;54756;51.140;6.952;2022-09-12T06:38:35;13.90;91.50
67974;DHT22;54756;51.140;6.952;2022-09-12T06:40:42;14.00;91.50
67974;DHT22;54756;51.140;6.952;2022-09-12T06:42:43;14.10;91.40
67974;DHT22;54756;51.140;6.952;2022-09-12T06:44:44;14.20;91.30
67974;DHT22;54756;51.140;6.952;2022-09-12T06:46:45;14.40;91.30
67974;DHT22;54756;51.140;6.952;2022-09-12T06:48:46;14.40;91.20
67974;DHT22;54756;51.140;6.952;2022-09-12T06:51:06;14.50;91.10
67974;DHT22;54756;51.140;6.952;2022-09-12T06:53:07;14.60;91.00
67974;DHT22;54756;51.140;6.952;2022-09-12T06:55:08;14.70;90.70
67974;DHT22;54756;51.140;6.952;2022-09-12T06:57:08;14.80;90.60
67974;DHT22;54756;51.140;6.952;2022-09-12T06:59:09;14.90;90.50
67974;DHT22;54756;51.140;6.952;2022-09-12T07:01:12;15.00;90.20
67974;DHT22;54756;51.140;6.952;2022-09-12T07:03:13;15.00;89.70
67974;DHT22;54756;51.140;6.952;2022-09-12T07:05:13;15.10;89.50
67974;DHT22;54756;51.140;6.952;2022-09-12T07:07:14;15.20;89.60
67974;DHT22;54756;51.140;6.952;2022-09-12T07:09:15;15.30;89.60
67974;DHT22;54756;51.140;6.952;2022-09-12T07:11:20;15.40;89.10
67974;DHT22;54756;51.140;6.952;2022-09-12T07:13:21;15.40;88.50
67974;DHT22;54756;51.140;6.952;2022-09-12T07:15:21;15.50;88.30
67974;DHT22;54756;51.140;6.952;2022-09-12T07:17:22;15.70;88.20
67974;DHT22;54756;51.140;6.952;2022-09-12T07:19:23;15.80;87.70
67974;DHT22;54756;51.140;6.952;2022-09-12T07:21:24;15.90;87.50
67974;DHT22;54756;51.140;6.952;2022-09-12T07:23:25;16.00;87.20
67974;DHT22;54756;51.140;6.952;2022-09-12T07:25:25;16.10;86.20
67974;DHT22;54756;51.140;6.952;2022-09-12T07:27:26;16.20;85.90
67974;DHT22;54756;51.140;6.952;2022-09-12T07:29:27;16.30;85.50
67974;DHT22;54756;51.140;6.952;2022-09-12T07:31:27;16.50;85.00
67974;DHT22;54756;51.140;6.952;2022-09-12T07:33:28;16.60;84.40
67974;DHT22;54756;51.140;6.952;2022-09-12T07:35:32;16.70;83.40
67974;DHT22;54756;51.140;6.952;2022-09-12T07:37:33;16.80;81.80
67974;DHT22;54756;51.140;6.952;2022-09-12T07:39:33;17.00;81.30
67974;DHT22;54756;51.140;6.952;2022-09-12T07:41:34;17.10;80.80
67974;DHT22;54756;51.140;6.952;2022-09-12T07:43:34;17.20;78.80
67974;DHT22;54756;51.140;6.952;2022-09-12T07:45:35;17.30;75.60
67974;DHT22;54756;51.140;6.952;2022-09-12T07:47:35;17.40;74.60
67974;DHT22;54756;51.140;6.952;2022-09-12T07:49:36;17.50;72.60
67974;DHT22;54756;51.140;6.952;2022-09-12T07:51:37;17.60;70.90
67974;DHT22;54756;51.140;6.952;2022-09-12T07:53:39;17.70;71.40
67974;DHT22;54756;51.140;6.952;2022-09-12T07:55:40;17.80;66.90
67974;DHT22;54756;51.140;6.952;2022-09-12T07:57:41;17.90;67.30
67974;DHT22;54756;51.140;6.952;2022-09-12T07:59:41;18.00;64.20
67974;DHT22;54756;51.140;6.952;2022-09-12T08:01:42;18.10;66.10
67974;DHT22;54756;51.140;6.952;2022-09-12T08:03:45;18.30;64.90
67974;DHT22;54756;51.140;6.952;2022-09-12T08:05:46;18.40;64.20
67974;DHT22;54756;51.140;6.952;2022-09-12T08:07:46;18.50;64.20
67974;DHT22;54756;51.140;6.952;2022-09-12T08:09:47;18.60;61.70
67974;DHT22;54756;51.140;6.952;2022-09-12T08:11:47;18.70;60.00
67974;DHT22;54756;51.140;6.952;2022-09-12T08:13:48;18.80;60.40
67974;DHT22;54756;51.140;6.952;2022-09-12T08:15:51;18.90;58.20
67974;DHT22;54756;51.140;6.952;2022-09-12T08:17:51;18.90;56.90
67974;DHT22;54756;51.140;6.952;2022-09-12T08:19:52;18.90;57.00
67974;DHT22;54756;51.140;6.952;2022-09-12T08:21:53;18.90;56.60
67974;DHT22;54756;51.140;6.952;2022-09-12T08:23:55;18.90;56.60
67974;DHT22;54756;51.140;6.952;2022-09-12T08:26:00;18.90;56.40
67974;DHT22;54756;51.140;6.952;2022-09-12T08:28:02;18.90;54.60
67974;DHT22;54756;51.140;6.952;2022-09-12T08:30:04;18.80;54.20
67974;DHT22;54756;51.140;6.952;2022-09-12T08:32:05;18.80;55.60
67974;DHT22;54756;51.140;6.952;2022-09-12T08:34:06;18.70;55.00
67974;DHT22;54756;51.140;6.952;2022-09-12T08:38:14;18.80;55.80
67974;DHT22;54756;51.140;6.952;2022-09-12T08:40:16;18.80;56.40
67974;DHT22;54756;51.140;6.952;2022-09-12T08:42:32;18.90;55.00
67974;DHT22;54756;51.140;6.952;2022-09-12T08:51:26;19.20;52.70
67974;DHT22;54756;51.140;6.952;2022-09-12T08:53:28;19.20;52.10
67974;DHT22;54756;51.140;6.952;2022-09-12T08:57:32;19.50;46.80
67974;DHT22;54756;51.140;6.952;2022-09-12T08:59:37;19.70;47.50
67974;DHT22;54756;51.140;6.952;2022-09-12T09:01:43;19.80;47.30
67974;DHT22;54756;51.140;6.952;2022-09-12T09:09:15;20.40;40.70
67974;DHT22;54756;51.140;6.952;2022-09-12T09:14:11;20.80;32.80
67974;DHT22;54756;51.140;6.952;2022-09-12T09:16:37;20.90;31.60
67974;DHT22;54756;51.140;6.952;2022-09-12T09:18:39;21.00;34.10
67974;DHT22;54756;51.140;6.952;2022-09-12T09:22:58;21.30;30.20
67974;DHT22;54756;51.140;6.952;2022-09-12T09:25:05;21.50;29.90
67974;DHT22;54756;51.140;6.952;2022-09-12T09:27:30;21.70;23.30
67974;DHT22;54756;51.140;6.952;2022-09-12T09:29:37;21.80;22.20
67974;DHT22;54756;51.140;6.952;2022-09-12T09:31:41;21.90;23.40
67974;DHT22;54756;51.140;6.952;2022-09-12T09:33:43;22.00;22.00
67974;DHT22;54756;51.140;6.952;2022-09-12T09:35:47;22.10;23.80
67974;DHT22;54756;51.140;6.952;2022-09-12T09:44:30;22.70;18.80
67974;DHT22;54756;51.140;6.952;2022-09-12T09:46:31;23.00;12.90
67974;DHT22;54756;51.140;6.952;2022-09-12T09:48:39;23.20;13.90
67974;DHT22;54756;51.140;6.952;2022-09-12T09:50:41;23.30;14.00
67974;DHT22;54756;51.140;6.952;2022-09-12T09:52:42;23.50;11.00
67974;DHT22;54756;51.140;6.952;2022-09-12T09:54:50;23.60;7.80
67974;DHT22;54756;51.140;6.952;2022-09-12T09:56:54;24.00;1.00
67974;DHT22;54756;51.140;6.952;2022-09-12T09:58:55;24.30;2.40
67974;DHT22;54756;51.140;6.952;2022-09-12T10:01:05;24.40;1.00
67974;DHT22;54756;51.140;6.952;2022-09-12T10:05:16;24.70;1.00
67974;DHT22;54756;51.140;6.952;2022-09-12T10:07:18;24.90;1.00
67974;DHT22;54756;51.140;6.952;2022-09-12T10:09:23;25.00;1.00
67974;DHT22;54756;51.140;6.952;2022-09-12T10:11:27;25.10;1.00
67974;DHT22;54756;51.140;6.952;2022-09-12T10:13:29;25.10;1.00
67974;DHT22;54756;51.140;6.952;2022-09-12T10:15:31;25.10;1.00
67974;DHT22;54756;51.140;6.952;2022-09-12T10:17:41;25.00;1.00
67974;DHT22;54756;51.140;6.952;2022-09-12T10:19:42;24.90;1.00
67974;DHT22;54756;51.140;6.952;2022-09-12T10:21:55;24.90;1.00
67974;DHT22;54756;51.140;6.952;2022-09-12T10:24:02;25.00;1.00
67974;DHT22;54756;51.140;6.952;2022-09-12T10:26:09;25.10;1.00
67974;DHT22;54756;51.140;6.952;2022-09-12T10:28:40;25.20;1.00
67974;DHT22;54756;51.140;6.952;2022-09-12T10:30:50;25.40;1.00
67974;DHT22;54756;51.140;6.952;2022-09-12T10:32:51;25.40;1.00
67974;DHT22;54756;51.140;6.952;2022-09-12T10:34:57;25.50;1.00
67974;DHT22;54756;51.140;6.952;2022-09-12T10:37:02;25.50;1.00
67974;DHT22;54756;51.140;6.952;2022-09-12T10:39:04;25.60;1.00
67974;DHT22;54756;51.140;6.952;2022-09-12T10:41:06;25.70;1.00
67974;DHT22;54756;51.140;6.952;2022-09-12T10:45:35;25.90;1.00
67974;DHT22;54756;51.140;6.952;2022-09-12T10:47:36;26.20;1.00
67974;DHT22;54756;51.140;6.952;2022-09-12T10:49:37;26.80;1.00
67974;DHT22;54756;51.140;6.952;2022-09-12T10:51:39;27.80;1.00
67974;DHT22;54756;51.140;6.952;2022-09-12T10:53:43;28.50;1.00
67974;DHT22;54756;51.140;6.952;2022-09-12T10:56:11;29.10;1.00
67974;DHT22;54756;51.140;6.952;2022-09-12T11:00:34;30.50;1.00
67974;DHT22;54756;51.140;6.952;2022-09-12T11:03:14;31.20;1.00
67974;DHT22;54756;51.140;6.952;2022-09-12T11:07:48;32.40;1.00
67974;DHT22;54756;51.140;6.952;2022-09-12T11:12:10;33.40;1.00
67974;DHT22;54756;51.140;6.952;2022-09-12T11:14:18;33.50;1.00
67974;DHT22;54756;51.140;6.952;2022-09-12T11:16:36;33.70;1.00
67974;DHT22;54756;51.140;6.952;2022-09-12T11:24:16;35.40;99.90
67974;DHT22;54756;51.140;6.952;2022-09-12T11:26:43;36.20;1.00
67974;DHT22;54756;51.140;6.952;2022-09-12T11:33:25;37.90;1.00
67974;DHT22;54756;51.140;6.952;2022-09-12T11:35:29;38.20;1.00
67974;DHT22;54756;51.140;6.952;2022-09-12T11:40:18;38.80;1.00
67974;DHT22;54756;51.140;6.952;2022-09-12T11:42:28;39.20;1.00
67974;DHT22;54756;51.140;6.952;2022-09-12T11:44:43;39.70;99.90
67974;DHT22;54756;51.140;6.952;2022-09-12T11:46:47;40.10;99.90
67974;DHT22;54756;51.140;6.952;2022-09-12T11:49:35;40.50;41.70
67974;DHT22;54756;51.140;6.952;2022-09-12T11:53:42;40.50;1.00
67974;DHT22;54756;51.140;6.952;2022-09-12T11:55:54;40.60;1.00
67974;DHT22;54756;51.140;6.952;2022-09-12T11:57:57;40.80;1.00
67974;DHT22;54756;51.140;6.952;2022-09-12T12:00:20;40.70;1.00
67974;DHT22;54756;51.140;6.952;2022-09-12T12:02:27;40.90;1.00
67974;DHT22;54756;51.140;6.952;2022-09-12T12:04:42;40.70;1.00
67974;DHT22;54756;51.140;6.952;2022-09-12T12:07:04;41.00;1.00
67974;DHT22;54756;51.140;6.952;2022-09-12T12:09:05;41.40;1.00
67974;DHT22;54756;51.140;6.952;2022-09-12T12:11:06;41.80;1.00
67974;DHT22;54756;51.140;6.952;2022-09-12T12:15:15;42.40;1.00
67974;DHT22;54756;51.140;6.952;2022-09-12T12:17:19;42.60;1.00
67974;DHT22;54756;51.140;6.952;2022-09-12T12:19:33;42.80;1.00
67974;DHT22;54756;51.140;6.952;2022-09-12T12:21:41;43.20;1.00
67974;DHT22;54756;51.140;6.952;2022-09-12T12:26:03;44.50;1.00
67974;DHT22;54756;51.140;6.952;2022-09-12T12:28:04;44.80;1.00
67974;DHT22;54756;51.140;6.952;2022-09-12T12:32:28;45.30;1.00
67974;DHT22;54756;51.140;6.952;2022-09-12T12:34:30;45.60;1.00
67974;DHT22;54756;51.140;6.952;2022-09-12T12:36:39;46.00;1.00
67974;DHT22;54756;51.140;6.952;2022-09-12T12:38:40;46.40;1.00
67974;DHT22;54756;51.140;6.952;2022-09-12T12:40:40;46.90;1.00
67974;DHT22;54756;51.140;6.952;2022-09-12T12:49:25;44.20;1.00
67974;DHT22;54756;51.140;6.952;2022-09-12T12:53:33;39.70;99.90
67974;DHT22;54756;51.140;6.952;2022-09-12T12:55:36;38.10;99.90
67974;DHT22;54756;51.140;6.952;2022-09-12T12:57:55;36.90;1.00
67974;DHT22;54756;51.140;6.952;2022-09-12T13:00:02;36.20;1.00
67974;DHT22;54756;51.140;6.952;2022-09-12T13:02:14;35.70;1.00
67974;DHT22;54756;51.140;6.952;2022-09-12T13:04:20;35.10;99.90
67974;DHT22;54756;51.140;6.952;2022-09-12T13:06:34;34.60;1.00
67974;DHT22;54756;51.140;6.952;2022-09-12T13:08:38;34.20;1.00
67974;DHT22;54756;51.140;6.952;2022-09-12T13:10:52;33.60;1.00
67974;DHT22;54756;51.140;6.952;2022-09-12T13:12:58;32.80;1.00
67974;DHT22;54756;51.140;6.952;2022-09-12T13:15:02;32.10;1.00
67974;DHT22;54756;51.140;6.952;2022-09-12T13:17:07;31.50;1.00
67974;DHT22;54756;51.140;6.952;2022-09-12T13:19:28;31.30;1.00
67974;DHT22;54756;51.140;6.952;2022-09-12T13:21:30;31.50;1.00
67974;DHT22;54756;51.140;6.952;2022-09-12T13:23:31;31.50;99.90
67974;DHT22;54756;51.140;6.952;2022-09-12T13:25:34;31.40;1.00
67974;DHT22;54756;51.140;6.952;2022-09-12T13:27:34;31.30;1.00
67974;DHT22;54756;51.140;6.952;2022-09-12T13:29:35;31.40;1.00
67974;DHT22;54756;51.140;6.952;2022-09-12T13:31:38;31.50;1.00
67974;DHT22;54756;51.140;6.952;2022-09-12T13:33:51;31.70;1.00
67974;DHT22;54756;51.140;6.952;2022-09-12T13:35:59;31.90;1.00
67974;DHT22;54756;51.140;6.952;2022-09-12T13:38:23;32.00;1.00
67974;DHT22;54756;51.140;6.952;2022-09-12T13:43:16;32.00;99.90
67974;DHT22;54756;51.140;6.952;2022-09-12T13:45:26;31.80;99.90
67974;DHT22;54756;51.140;6.952;2022-09-12T13:47:37;31.80;4.80
67974;DHT22;54756;51.140;6.952;2022-09-12T13:49:39;31.60;1.00
67974;DHT22;54756;51.140;6.952;2022-09-12T13:51:42;31.50;99.90
67974;DHT22;54756;51.140;6.952;2022-09-12T13:53:46;31.50;99.90
67974;DHT22;54756;51.140;6.952;2022-09-12T13:55:50;31.60;99.90
67974;DHT22;54756;51.140;6.952;2022-09-12T13:57:58;31.80;1.00
67974;DHT22;54756;51.140;6.952;2022-09-12T14:00:01;31.70;1.00
67974;DHT22;54756;51.140;6.952;2022-09-12T14:02:21;31.70;99.90
67974;DHT22;54756;51.140;6.952;2022-09-12T14:04:24;31.70;99.90
67974;DHT22;54756;51.140;6.952;2022-09-12T14:06:49;31.80;99.90
67974;DHT22;54756;51.140;6.952;2022-09-12T14:08:50;31.90;99.90
67974;DHT22;54756;51.140;6.952;2022-09-12T14:10:51;31.90;99.90
67974;DHT22;54756;51.140;6.952;2022-09-12T14:12:53;31.80;99.90
67974;DHT22;54756;51.140;6.952;2022-09-12T14:14:56;31.60;1.00
67974;DHT22;54756;51.140;6.952;2022-09-12T14:16:57;31.50;1.00
67974;DHT22;54756;51.140;6.952;2022-09-12T14:18:58;31.50;1.00
67974;DHT22;54756;51.140;6.952;2022-09-12T14:21:11;31.60;1.00
67974;DHT22;54756;51.140;6.952;2022-09-12T14:23:30;31.40;1.00
67974;DHT22;54756;51.140;6.952;2022-09-12T14:25:37;31.30;1.00
67974;DHT22;54756;51.140;6.952;2022-09-12T14:27:44;31.20;1.00
67974;DHT22;54756;51.140;6.952;2022-09-12T14:29:47;31.00;1.00
67974;DHT22;54756;51.140;6.952;2022-09-12T14:32:02;30.90;1.00
67974;DHT22;54756;51.140;6.952;2022-09-12T14:34:17;30.90;1.00
67974;DHT22;54756;51.140;6.952;2022-09-12T14:36:25;31.00;1.00
67974;DHT22;54756;51.140;6.952;2022-09-12T14:38:42;31.00;1.00
67974;DHT22;54756;51.140;6.952;2022-09-12T14:41:19;30.90;1.00
67974;DHT22;54756;51.140;6.952;2022-09-12T14:43:28;30.80;1.00
67974;DHT22;54756;51.140;6.952;2022-09-12T14:45:31;30.80;1.00
67974;DHT22;54756;51.140;6.952;2022-09-12T14:47:40;30.90;1.00
67974;DHT22;54756;51.140;6.952;2022-09-12T14:49:41;30.80;1.00
67974;DHT22;54756;51.140;6.952;2022-09-12T14:52:03;30.70;1.00